createdAt,value
2018-12-15T00:00:15.045Z,8.59
2018-12-15T00:02:43.889Z,8.57
2018-12-15T00:05:12.780Z,8.49
2018-12-15T00:07:41.680Z,8.51
2018-12-15T00:10:10.764Z,8.49
2018-12-15T00:12:39.745Z,8.49
2018-12-15T00:15:09.740Z,8.46
2018-12-15T00:17:38.659Z,8.51
2018-12-15T00:20:08.501Z,8.55
2018-12-15T00:22:37.346Z,8.52
2018-12-15T00:25:06.229Z,8.55
2018-12-15T00:27:35.126Z,8.59
2018-12-15T00:30:04.147Z,8.57
2018-12-15T00:32:32.993Z,8.62
2018-12-15T00:35:01.850Z,8.62
2018-12-15T00:37:30.662Z,8.61
2018-12-15T00:39:59.504Z,8.58
2018-12-15T00:42:32.837Z,8.60
2018-12-15T00:45:01.702Z,8.59
2018-12-15T00:47:30.660Z,8.57
2018-12-15T00:49:59.549Z,8.59
2018-12-15T00:52:28.389Z,8.61
2018-12-15T00:54:57.231Z,8.61
2018-12-15T00:57:26.145Z,8.62
2018-12-15T00:59:55.068Z,8.65
2018-12-15T01:02:23.926Z,8.63
2018-12-15T01:04:52.784Z,8.70
2018-12-15T01:07:21.667Z,8.67
2018-12-15T01:09:50.675Z,8.70
2018-12-15T01:12:19.568Z,8.67
2018-12-15T01:14:48.411Z,8.73
2018-12-15T01:17:20.495Z,8.70
2018-12-15T01:19:49.933Z,8.74
2018-12-15T01:22:18.776Z,8.72
2018-12-15T01:24:47.628Z,8.73
2018-12-15T01:27:16.606Z,8.71
2018-12-15T01:29:45.462Z,8.82
2018-12-15T01:32:14.381Z,8.82
2018-12-15T01:34:43.261Z,8.78
2018-12-15T01:37:12.082Z,8.84
2018-12-15T01:39:40.914Z,8.85
2018-12-15T01:42:09.825Z,8.85
2018-12-15T01:44:38.636Z,8.84
2018-12-15T01:47:07.488Z,8.86
2018-12-15T01:49:36.356Z,8.81
2018-12-15T01:52:05.176Z,8.86
2018-12-15T01:54:34.126Z,8.88
2018-12-15T01:57:03.010Z,8.88
2018-12-15T01:59:32.035Z,8.89
2018-12-15T02:02:00.885Z,8.91
2018-12-15T02:04:29.762Z,8.89
2018-12-15T02:06:58.609Z,8.97
2018-12-15T02:09:27.705Z,8.96
2018-12-15T02:11:56.566Z,8.99
2018-12-15T02:14:25.739Z,8.97
2018-12-15T02:16:54.566Z,8.98
2018-12-15T02:19:23.409Z,8.95
2018-12-15T02:21:52.302Z,8.98
2018-12-15T02:24:21.212Z,8.99
2018-12-15T02:26:50.071Z,8.96
2018-12-15T02:29:18.901Z,9.01
2018-12-15T02:31:47.908Z,8.99
2018-12-15T02:34:16.729Z,8.99
2018-12-15T02:36:45.564Z,9.06
2018-12-15T02:39:14.522Z,9.08
2018-12-15T02:41:47.215Z,9.14
2018-12-15T02:44:14.218Z,9.12
2018-12-15T02:46:43.106Z,9.04
2018-12-15T02:49:11.915Z,9.12
2018-12-15T02:51:40.752Z,9.04
2018-12-15T02:54:09.617Z,9.07
2018-12-15T02:56:38.537Z,9.08
2018-12-15T02:59:07.436Z,9.08
2018-12-15T03:01:36.245Z,9.10
2018-12-15T03:04:05.325Z,9.10
2018-12-15T03:06:34.157Z,9.15
2018-12-15T03:09:02.994Z,9.16
2018-12-15T03:11:31.969Z,9.12
2018-12-15T03:14:00.812Z,9.07
2018-12-15T03:16:29.681Z,9.10
2018-12-15T03:19:05.482Z,9.13
2018-12-15T03:21:34.469Z,9.11
2018-12-15T03:24:03.349Z,9.11
2018-12-15T03:26:32.371Z,9.08
2018-12-15T03:29:01.236Z,8.98
2018-12-15T03:31:30.299Z,8.97
2018-12-15T03:33:59.112Z,8.85
2018-12-15T03:36:27.981Z,8.81
2018-12-15T03:38:56.804Z,8.64
2018-12-15T03:41:25.768Z,8.67
2018-12-15T03:43:54.747Z,8.65
2018-12-15T03:46:23.565Z,8.64
2018-12-15T03:48:52.496Z,8.72
2018-12-15T03:51:21.381Z,8.77
2018-12-15T03:53:50.204Z,8.79
2018-12-15T03:56:19.021Z,8.81
2018-12-15T03:58:48.026Z,8.78
2018-12-15T04:01:16.862Z,8.81
2018-12-15T04:03:45.703Z,8.83
2018-12-15T04:06:14.656Z,8.92
2018-12-15T04:08:43.478Z,8.93
2018-12-15T04:11:12.296Z,8.91
2018-12-15T04:13:41.197Z,8.94
2018-12-15T04:16:10.044Z,8.96
2018-12-15T04:18:38.988Z,9.02
2018-12-15T04:21:07.853Z,9.04
2018-12-15T04:23:36.672Z,9.04
2018-12-15T04:26:05.525Z,9.06
2018-12-15T04:28:34.367Z,9.03
2018-12-15T04:31:03.253Z,8.98
2018-12-15T04:33:32.097Z,9.00
2018-12-15T04:36:07.734Z,9.04
2018-12-15T04:38:36.700Z,9.03
2018-12-15T04:41:05.609Z,8.99
2018-12-15T04:43:34.466Z,8.94
2018-12-15T04:46:03.308Z,9.01
2018-12-15T04:48:32.138Z,9.01
2018-12-15T04:51:01.041Z,9.00
2018-12-15T04:53:29.855Z,8.99
2018-12-15T04:55:58.693Z,9.00
2018-12-15T04:58:27.558Z,9.05
2018-12-15T05:00:56.420Z,9.02
2018-12-15T05:03:25.261Z,9.03
2018-12-15T05:05:54.153Z,9.02
2018-12-15T05:08:22.973Z,9.04
2018-12-15T05:10:51.791Z,9.04
2018-12-15T05:13:20.669Z,8.98
2018-12-15T05:15:49.543Z,9.06
2018-12-15T05:18:18.646Z,9.08
2018-12-15T05:20:47.704Z,9.04
2018-12-15T05:23:16.547Z,9.13
2018-12-15T05:25:45.401Z,9.09
2018-12-15T05:28:14.308Z,9.14
2018-12-15T05:30:43.168Z,9.06
2018-12-15T05:33:11.983Z,9.09
2018-12-15T05:35:40.873Z,9.14
2018-12-15T05:38:09.697Z,9.16
2018-12-15T05:40:38.563Z,8.92
2018-12-15T05:43:07.408Z,9.08
2018-12-15T05:45:36.316Z,9.01
2018-12-15T05:48:05.149Z,9.01
2018-12-15T05:50:33.997Z,9.02
2018-12-15T05:53:02.892Z,9.04
2018-12-15T05:55:31.729Z,9.10
2018-12-15T05:58:00.554Z,9.11
2018-12-15T06:00:29.457Z,9.12
2018-12-15T06:02:58.328Z,9.12
2018-12-15T06:05:27.349Z,9.16
2018-12-15T06:07:56.240Z,9.15
2018-12-15T06:10:25.523Z,9.16
2018-12-15T06:12:54.359Z,9.14
2018-12-15T06:15:23.178Z,9.16
2018-12-15T06:17:52.058Z,9.18
2018-12-15T06:20:20.920Z,9.17
2018-12-15T06:22:49.737Z,9.30
2018-12-15T06:25:20.305Z,9.28
2018-12-15T06:27:49.138Z,9.46
2018-12-15T06:30:17.996Z,9.62
2018-12-15T06:32:47.026Z,9.68
2018-12-15T06:35:15.872Z,9.66
2018-12-15T06:37:44.741Z,9.59
2018-12-15T06:40:14.119Z,9.67
2018-12-15T06:42:42.939Z,9.59
2018-12-15T06:45:11.829Z,9.66
2018-12-15T06:47:40.729Z,9.63
2018-12-15T06:50:09.709Z,9.67
2018-12-15T06:52:38.634Z,9.68
2018-12-15T06:55:08.865Z,9.70
2018-12-15T06:57:37.705Z,9.81
2018-12-15T07:00:06.958Z,9.78
2018-12-15T07:02:35.798Z,9.75
2018-12-15T07:05:05.040Z,9.86
2018-12-15T07:07:33.932Z,9.85
2018-12-15T07:10:03.366Z,9.91
2018-12-15T07:12:32.196Z,9.98
2018-12-15T07:15:01.032Z,9.96
2018-12-15T07:17:29.886Z,9.93
2018-12-15T07:19:58.701Z,10.06
2018-12-15T07:22:27.635Z,10.10
2018-12-15T07:24:56.523Z,10.10
2018-12-15T07:27:25.364Z,10.03
2018-12-15T07:29:54.295Z,10.02
2018-12-15T07:32:23.121Z,9.94
2018-12-15T07:34:52.009Z,9.99
2018-12-15T07:37:20.928Z,9.96
2018-12-15T07:39:50.697Z,9.91
2018-12-15T07:42:19.537Z,9.88
2018-12-15T07:44:51.018Z,9.86
2018-12-15T07:47:19.873Z,9.86
2018-12-15T07:49:48.700Z,9.96
2018-12-15T07:52:17.597Z,9.98
2018-12-15T07:54:46.489Z,10.03
2018-12-15T07:57:15.700Z,10.02
2018-12-15T07:59:44.568Z,10.01
2018-12-15T08:02:13.556Z,10.08
2018-12-15T08:04:42.492Z,10.02
2018-12-15T08:07:11.550Z,9.96
2018-12-15T08:09:40.412Z,9.92
2018-12-15T08:12:14.364Z,9.97
2018-12-15T08:14:43.271Z,9.92
2018-12-15T08:17:12.156Z,9.82
2018-12-15T08:19:41.063Z,9.90
2018-12-15T08:22:09.905Z,9.95
2018-12-15T08:24:38.910Z,9.99
2018-12-15T08:27:07.795Z,10.00
2018-12-15T08:29:36.709Z,10.02
2018-12-15T08:32:05.771Z,10.09
2018-12-15T08:34:34.666Z,10.18
2018-12-15T08:37:03.524Z,10.20
2018-12-15T08:39:32.395Z,10.20
2018-12-15T08:42:01.239Z,10.23
2018-12-15T08:44:30.088Z,10.30
2018-12-15T08:46:59.061Z,10.23
2018-12-15T08:49:27.920Z,10.18
2018-12-15T08:51:57.993Z,10.16
2018-12-15T08:54:26.812Z,10.26
2018-12-15T08:56:55.616Z,10.35
2018-12-15T08:59:25.769Z,10.27
2018-12-15T09:01:54.608Z,10.15
2018-12-15T09:04:23.412Z,10.09
2018-12-15T09:06:52.204Z,10.12
2018-12-15T09:09:22.268Z,10.18
2018-12-15T09:11:51.078Z,10.11
2018-12-15T09:14:19.958Z,10.22
2018-12-15T09:16:48.862Z,10.22
2018-12-15T09:19:17.730Z,10.20
2018-12-15T09:21:47.844Z,10.20
2018-12-15T09:24:16.644Z,10.13
2018-12-15T09:26:45.444Z,10.05
2018-12-15T09:29:14.305Z,10.05
2018-12-15T09:31:43.209Z,10.01
2018-12-15T09:34:12.079Z,10.07
2018-12-15T09:36:40.915Z,10.15
2018-12-15T09:39:09.709Z,10.21
2018-12-15T09:41:38.557Z,10.23
2018-12-15T09:44:08.608Z,10.23
2018-12-15T09:46:37.444Z,10.31
2018-12-15T09:49:06.276Z,10.41
2018-12-15T09:51:35.123Z,10.47
2018-12-15T09:54:03.976Z,10.60
2018-12-15T09:56:32.884Z,10.66
2018-12-15T09:59:01.905Z,10.77
2018-12-15T10:01:30.742Z,10.86
2018-12-15T10:03:59.620Z,10.78
2018-12-15T10:06:28.457Z,10.75
2018-12-15T10:08:57.258Z,10.73
2018-12-15T10:11:26.112Z,10.88
2018-12-15T10:13:55.045Z,10.97
2018-12-15T10:16:23.856Z,11.02
2018-12-15T10:18:52.854Z,10.88
2018-12-15T10:21:21.677Z,10.89
2018-12-15T10:23:50.493Z,10.94
2018-12-15T10:26:19.325Z,10.89
2018-12-15T10:28:48.118Z,10.78
2018-12-15T10:31:22.222Z,10.69
2018-12-15T10:33:51.021Z,10.76
2018-12-15T10:36:19.805Z,10.93
2018-12-15T10:38:48.627Z,10.93
2018-12-15T10:41:17.537Z,11.26
2018-12-15T10:43:46.328Z,11.10
2018-12-15T10:46:15.166Z,11.11
2018-12-15T10:48:43.993Z,11.12
2018-12-15T10:51:12.852Z,11.12
2018-12-15T10:53:42.893Z,11.16
2018-12-15T10:56:11.880Z,11.17
2018-12-15T10:58:40.743Z,11.18
2018-12-15T11:01:14.780Z,11.09
2018-12-15T11:03:44.936Z,11.27
2018-12-15T11:06:13.737Z,11.18
2018-12-15T11:08:42.716Z,10.95
2018-12-15T11:11:12.741Z,11.09
2018-12-15T11:13:47.994Z,11.03
2018-12-15T11:16:16.790Z,10.85
2018-12-15T11:18:45.604Z,10.85
2018-12-15T11:21:14.407Z,10.81
2018-12-15T11:23:43.259Z,10.78
2018-12-15T11:26:12.130Z,10.91
2018-12-15T11:28:41.012Z,10.73
2018-12-15T11:31:09.983Z,10.66
2018-12-15T11:33:38.809Z,10.64
2018-12-15T11:36:07.626Z,10.67
2018-12-15T11:38:36.561Z,10.67
2018-12-15T11:41:05.416Z,10.63
2018-12-15T11:43:34.269Z,10.72
2018-12-15T11:46:03.076Z,10.72
2018-12-15T11:48:33.192Z,10.69
2018-12-15T11:51:02.086Z,10.62
2018-12-15T11:53:30.889Z,10.58
2018-12-15T11:55:59.750Z,10.67
2018-12-15T11:58:28.545Z,10.63
2018-12-15T12:00:57.453Z,10.75
2018-12-15T12:03:26.311Z,10.83
2018-12-15T12:05:55.181Z,10.84
2018-12-15T12:08:24.020Z,10.94
2018-12-15T12:10:52.822Z,10.91
2018-12-15T12:13:21.621Z,10.67
2018-12-15T12:15:51.816Z,10.46
2018-12-15T12:18:20.628Z,10.56
2018-12-15T12:20:49.478Z,10.57
2018-12-15T12:23:18.287Z,10.51
2018-12-15T12:25:47.089Z,10.37
2018-12-15T12:28:17.138Z,10.38
2018-12-15T12:30:46.000Z,10.46
2018-12-15T12:33:14.875Z,10.47
2018-12-15T12:35:43.808Z,10.41
2018-12-15T12:38:12.686Z,10.35
2018-12-15T12:40:41.620Z,10.26
2018-12-15T12:43:10.519Z,10.26
2018-12-15T12:45:39.424Z,10.12
2018-12-15T12:48:08.224Z,10.09
2018-12-15T12:50:38.285Z,10.07
2018-12-15T12:53:07.191Z,10.07
2018-12-15T12:55:36.151Z,10.11
2018-12-15T12:58:05.088Z,10.16
2018-12-15T13:00:33.961Z,10.07
2018-12-15T13:03:02.816Z,10.08
2018-12-15T13:05:31.604Z,10.11
2018-12-15T13:08:00.434Z,10.15
2018-12-15T13:10:29.233Z,10.13
2018-12-15T13:12:58.050Z,10.08
2018-12-15T13:15:28.261Z,10.11
2018-12-15T13:17:57.056Z,10.16
2018-12-15T13:20:25.889Z,10.20
2018-12-15T13:22:54.721Z,10.19
2018-12-15T13:25:23.517Z,10.10
2018-12-15T13:27:52.400Z,10.15
2018-12-15T13:30:21.526Z,10.19
2018-12-15T13:32:50.406Z,10.25
2018-12-15T13:35:19.233Z,10.27
2018-12-15T13:37:49.381Z,10.26
2018-12-15T13:40:18.207Z,10.27
2018-12-15T13:42:47.078Z,10.20
2018-12-15T13:45:16.150Z,10.18
2018-12-15T13:47:45.007Z,10.14
2018-12-15T13:50:13.893Z,10.20
2018-12-15T13:52:44.227Z,10.10
2018-12-15T13:55:13.227Z,10.09
2018-12-15T13:57:42.858Z,9.99
2018-12-15T14:00:11.978Z,10.04
2018-12-15T14:02:40.843Z,10.01
2018-12-15T14:05:09.732Z,9.97
2018-12-15T14:07:38.597Z,9.99
2018-12-15T14:10:07.495Z,9.95
2018-12-15T14:12:36.409Z,9.98
2018-12-15T14:15:05.526Z,10.01
2018-12-15T14:17:34.386Z,9.98
2018-12-15T14:20:03.236Z,9.93
2018-12-15T14:22:32.044Z,9.96
2018-12-15T14:25:00.841Z,9.88
2018-12-15T14:27:29.664Z,9.87
2018-12-15T14:29:58.468Z,9.85
2018-12-15T14:32:27.287Z,9.79
2018-12-15T14:34:56.116Z,9.80
2018-12-15T14:37:25.054Z,9.73
2018-12-15T14:39:53.862Z,9.76
2018-12-15T14:42:22.703Z,9.73
2018-12-15T14:44:51.495Z,9.71
2018-12-15T14:47:20.305Z,9.73
2018-12-15T14:49:50.652Z,9.72
2018-12-15T14:52:19.655Z,9.66
2018-12-15T14:54:48.517Z,9.65
2018-12-15T14:57:21.471Z,9.67
2018-12-15T14:59:50.362Z,9.68
2018-12-15T15:02:19.244Z,9.69
2018-12-15T15:04:48.153Z,9.70
2018-12-15T15:07:17.036Z,9.72
2018-12-15T15:09:45.928Z,9.66
2018-12-15T15:12:14.841Z,9.68
2018-12-15T15:14:43.759Z,9.71
2018-12-15T15:17:12.674Z,9.61
2018-12-15T15:19:41.535Z,9.63
2018-12-15T15:22:10.359Z,9.59
2018-12-15T15:24:39.220Z,9.65
2018-12-15T15:27:10.064Z,9.60
2018-12-15T15:29:38.934Z,9.64
2018-12-15T15:32:07.797Z,9.55
2018-12-15T15:34:36.793Z,9.64
2018-12-15T15:37:05.671Z,9.65
2018-12-15T15:39:34.512Z,9.68
2018-12-15T15:42:04.686Z,9.69
2018-12-15T15:44:33.532Z,9.71
2018-12-15T15:47:02.429Z,9.68
2018-12-15T15:49:31.274Z,9.73
2018-12-15T15:52:00.228Z,9.68
2018-12-15T15:54:29.041Z,9.64
2018-12-15T15:56:57.896Z,9.65
2018-12-15T15:59:26.686Z,9.59
2018-12-15T16:01:55.520Z,9.61
2018-12-15T16:04:25.926Z,9.61
2018-12-15T16:06:54.749Z,9.66
2018-12-15T16:09:23.613Z,9.71
2018-12-15T16:11:52.556Z,9.67
2018-12-15T16:14:21.352Z,9.65
2018-12-15T16:16:50.136Z,9.63
2018-12-15T16:21:52.919Z,9.62
2018-12-15T16:24:24.856Z,9.61
2018-12-15T16:26:53.669Z,9.59
2018-12-15T16:29:22.636Z,9.59
2018-12-15T16:31:52.760Z,9.55
2018-12-15T16:34:21.553Z,9.54
2018-12-15T16:36:50.365Z,9.56
2018-12-15T16:39:20.665Z,9.55
2018-12-15T16:41:49.464Z,9.57
2018-12-15T16:44:18.353Z,9.53
2018-12-15T16:46:48.772Z,9.56
2018-12-15T16:49:17.649Z,9.51
2018-12-15T16:51:46.562Z,9.39
2018-12-15T16:54:16.971Z,9.37
2018-12-15T16:56:45.957Z,9.37
2018-12-15T16:59:14.753Z,9.39
2018-12-15T17:01:45.205Z,9.45
2018-12-15T17:04:14.025Z,9.48
2018-12-15T17:06:42.842Z,9.54
2018-12-15T17:09:11.805Z,9.57
2018-12-15T17:11:40.617Z,9.58
2018-12-15T17:14:09.408Z,9.54
2018-12-15T17:16:38.261Z,9.58
2018-12-15T17:19:07.102Z,9.60
2018-12-15T17:21:35.955Z,9.57
2018-12-15T17:24:04.945Z,9.57
2018-12-15T17:26:33.746Z,9.60
2018-12-15T17:29:02.655Z,9.54
2018-12-15T17:31:32.949Z,9.58
2018-12-15T17:34:01.841Z,9.53
2018-12-15T17:36:30.700Z,9.58
2018-12-15T17:38:59.835Z,9.61
2018-12-15T17:41:28.697Z,9.64
2018-12-15T17:43:57.673Z,9.71
2018-12-15T17:46:26.578Z,9.68
2018-12-15T17:48:55.479Z,9.66
2018-12-15T17:51:25.718Z,9.63
2018-12-15T17:53:54.647Z,9.65
2018-12-15T17:56:23.491Z,9.63
2018-12-15T17:58:53.625Z,9.65
2018-12-15T18:01:22.447Z,9.68
2018-12-15T18:03:51.389Z,9.70
2018-12-15T18:06:20.317Z,9.68
2018-12-15T18:08:49.189Z,9.68
2018-12-15T18:11:18.000Z,9.62
2018-12-15T18:13:46.813Z,9.62
2018-12-15T18:16:15.621Z,9.62
2018-12-15T18:18:44.458Z,9.61
2018-12-15T18:21:13.265Z,9.62
2018-12-15T18:23:42.165Z,9.58
2018-12-15T18:26:10.988Z,9.59
2018-12-15T18:28:39.817Z,9.57
2018-12-15T18:31:09.208Z,9.55
2018-12-15T18:33:38.546Z,9.57
2018-12-15T18:36:07.384Z,9.54
2018-12-15T18:38:36.263Z,9.59
2018-12-15T18:41:05.156Z,9.51
2018-12-15T18:43:34.032Z,9.51
2018-12-15T18:46:02.930Z,9.46
2018-12-15T18:48:31.863Z,9.42
2018-12-15T18:51:00.700Z,9.48
2018-12-15T18:53:29.601Z,9.48
2018-12-15T18:55:58.466Z,9.48
2018-12-15T18:58:27.322Z,9.51
2018-12-15T19:00:56.215Z,9.50
2018-12-15T19:03:25.102Z,9.37
2018-12-15T19:05:53.970Z,9.35
2018-12-15T19:08:24.405Z,9.35
2018-12-15T19:10:53.290Z,9.29
2018-12-15T19:13:22.156Z,9.23
2018-12-15T19:15:56.454Z,9.23
2018-12-15T19:18:25.359Z,9.27
2018-12-15T19:20:54.213Z,9.26
2018-12-15T19:23:23.086Z,9.32
2018-12-15T19:25:51.932Z,9.28
2018-12-15T19:28:22.161Z,9.29
2018-12-15T19:30:51.018Z,9.32
2018-12-15T19:33:19.923Z,9.30
2018-12-15T19:35:48.834Z,9.28
2018-12-15T19:38:17.702Z,9.17
2018-12-15T19:40:46.552Z,9.13
2018-12-15T19:43:16.669Z,9.06
2018-12-15T19:45:45.615Z,9.05
2018-12-15T19:48:14.459Z,9.10
2018-12-15T19:50:43.301Z,9.10
2018-12-15T19:53:12.101Z,9.17
2018-12-15T19:55:41.128Z,9.24
2018-12-15T19:58:09.985Z,9.31
2018-12-15T20:00:38.798Z,9.35
2018-12-15T20:03:07.669Z,9.40
2018-12-15T20:05:36.548Z,9.46
2018-12-15T20:08:05.429Z,9.43
2018-12-15T20:10:34.385Z,9.46
2018-12-15T20:13:03.269Z,9.45
2018-12-15T20:15:32.166Z,9.43
2018-12-15T20:18:01.040Z,9.49
2018-12-15T20:20:31.113Z,9.52
2018-12-15T20:25:38.529Z,9.52
2018-12-15T20:28:07.369Z,9.54
2018-12-15T20:30:37.469Z,9.59
2018-12-15T20:33:06.342Z,9.63
2018-12-15T20:35:35.189Z,9.63
2018-12-15T20:38:04.079Z,9.63
2018-12-15T20:40:32.995Z,9.58
2018-12-15T20:43:01.924Z,9.60
2018-12-15T20:45:30.795Z,9.62
2018-12-15T20:47:59.646Z,9.58
2018-12-15T20:50:28.529Z,9.57
2018-12-15T20:52:57.481Z,9.58
2018-12-15T20:55:26.290Z,9.57
2018-12-15T20:57:55.165Z,9.56
2018-12-15T21:00:24.037Z,9.55
2018-12-15T21:02:52.934Z,9.59
2018-12-15T21:05:21.813Z,9.51
2018-12-15T21:07:50.702Z,9.52
2018-12-15T21:10:19.572Z,9.49
2018-12-15T21:12:48.457Z,9.46
2018-12-15T21:15:26.705Z,9.45
2018-12-15T21:17:55.545Z,9.47
2018-12-15T21:20:24.428Z,9.49
2018-12-15T21:22:53.367Z,9.45
2018-12-15T21:25:22.185Z,9.45
2018-12-15T21:27:51.000Z,9.45
2018-12-15T21:30:20.137Z,9.58
2018-12-15T21:32:49.053Z,9.66
2018-12-15T21:35:18.303Z,9.70
2018-12-15T21:37:47.555Z,9.69
2018-12-15T21:40:16.775Z,9.61
2018-12-15T21:42:46.390Z,9.47
2018-12-15T21:45:15.703Z,9.44
2018-12-15T21:47:44.745Z,9.47
2018-12-15T21:50:14.881Z,9.45
2018-12-15T21:52:44.351Z,9.35
2018-12-15T21:55:14.165Z,9.46
2018-12-15T21:57:43.065Z,9.46
2018-12-15T22:00:12.049Z,9.53
2018-12-15T22:02:40.954Z,9.56
2018-12-15T22:05:09.802Z,9.56
2018-12-15T22:07:38.729Z,9.61
2018-12-15T22:10:10.481Z,9.65
2018-12-15T22:12:39.834Z,9.68
2018-12-15T22:15:09.388Z,9.66
2018-12-15T22:17:40.011Z,9.61
2018-12-15T22:20:10.582Z,9.63
2018-12-15T22:22:39.430Z,9.64
2018-12-15T22:25:08.278Z,9.58
2018-12-15T22:27:37.499Z,9.61
2018-12-15T22:30:07.596Z,9.68
2018-12-15T22:32:36.472Z,9.69
2018-12-15T22:35:05.956Z,9.69
2018-12-15T22:37:35.724Z,9.68
2018-12-15T22:40:05.559Z,9.72
2018-12-15T22:42:35.178Z,9.67
2018-12-15T22:45:05.465Z,9.69
2018-12-15T22:47:34.405Z,9.71
2018-12-15T22:50:03.327Z,9.79
2018-12-15T22:52:32.195Z,9.80
2018-12-15T22:55:01.041Z,9.79
2018-12-15T22:57:29.938Z,9.82
2018-12-15T23:02:33.048Z,9.73
2018-12-15T23:05:01.933Z,9.70
2018-12-15T23:07:30.835Z,9.65
2018-12-15T23:09:59.685Z,9.60
2018-12-15T23:12:28.661Z,9.56
2018-12-15T23:14:57.568Z,9.53
2018-12-15T23:17:26.431Z,9.54
2018-12-15T23:19:56.693Z,9.55
2018-12-15T23:22:25.688Z,9.54
2018-12-15T23:24:54.700Z,9.42
2018-12-15T23:27:23.616Z,9.37
2018-12-15T23:29:52.436Z,9.42
2018-12-15T23:32:21.278Z,9.42
2018-12-15T23:34:50.150Z,9.46
2018-12-15T23:37:18.974Z,9.52
2018-12-15T23:39:47.813Z,9.47
2018-12-15T23:42:16.740Z,9.48
2018-12-15T23:44:45.569Z,9.42
2018-12-15T23:47:14.994Z,9.38
2018-12-15T23:49:43.857Z,9.17
2018-12-15T23:52:12.721Z,9.11
2018-12-15T23:54:41.620Z,9.09
2018-12-15T23:57:10.436Z,9.08
2018-12-15T23:59:39.465Z,9.11
